Terminal Aerodrome Forecast
Issued by NWS

Current Version | Previous Version | Graphics & Text | Print | Product List | Glossary On
Versions: 1 2 3 4 5 6 7 8 9 10 11 12 13 14 15 16 17 18 19 20 21 22 23 24 25 26 27 28 29 30 31 32
759
FTUS41 KRNK 081734
TAFLWB
TAF
KLWB 081734Z 0818/0918 30008G18KT P6SM OVC050
     FM082000 29011G22KT P6SM SCT040 BKN100
     FM090400 29008G16KT P6SM -SHSN BKN020 BKN050
      TEMPO 0910/0912 5SM -SHSN OVC007=

USA.gov is the U.S. government's official web portal to all federal, state and local government web resources and services.